Time;durP1;ratioP1;P1;durP2;ratioP2;P2;SDS_P1;SDS_P2;PMS_P1;PMS_P2;Temp;Humidity;BMP_temperature;BMP_pressure;BME280_temperature;BME280_humidity;BME280_pressure;Samples;Min_cycle;Max_cycle;Signal;HPM_P1;HPM_P2
2024/01/29 00:02:11;;;;;;;10.88;5.53;;;;;;;6.21;65.63;102226.47;3541805;40;20056;-67
2024/01/29 00:04:36;;;;;;;6.15;4.85;;;;;;;6.25;65.70;102233.53;3539348;40;20057;-67
2024/01/29 00:07:02;;;;;;;8.98;5.38;;;;;;;6.24;65.53;102231.75;3541134;40;20050;-67
2024/01/29 00:09:28;;;;;;;8.25;5.57;;;;;;;6.17;65.48;102227.47;3540819;40;20102;-66
2024/01/29 00:11:54;;;;;;;9.90;5.45;;;;;;;6.17;65.99;102230.13;3537375;40;20038;-66
2024/01/29 00:14:19;;;;;;;7.18;5.60;;;;;;;6.15;65.84;102231.06;3539978;40;20060;-67
2024/01/29 00:16:47;;;;;;;6.85;5.57;;;;;;;6.14;66.38;102234.66;3539246;40;20065;-66
2024/01/29 00:19:13;;;;;;;7.40;5.38;;;;;;;5.97;65.92;102211.00;3539570;40;20149;-66
2024/01/29 00:21:39;;;;;;;7.18;5.18;;;;;;;6.15;66.36;102229.31;3539059;40;20346;-66
2024/01/29 00:24:05;;;;;;;8.35;5.38;;;;;;;6.07;66.68;102220.56;3540147;40;20054;-66
2024/01/29 00:26:31;;;;;;;8.70;5.68;;;;;;;6.04;66.18;102218.84;3540427;40;20070;-67
2024/01/29 00:28:57;;;;;;;7.88;5.72;;;;;;;6.05;66.67;102231.25;3537889;40;20054;-67
2024/01/29 00:31:23;;;;;;;6.75;5.40;;;;;;;5.85;67.26;102197.88;3540876;40;20402;-67
2024/01/29 00:33:52;;;;;;;7.07;5.20;;;;;;;5.97;66.74;102227.03;3540725;40;20069;-67
2024/01/29 00:36:18;;;;;;;8.73;5.57;;;;;;;5.94;67.11;102221.75;3541461;40;20505;-66
2024/01/29 00:38:43;;;;;;;9.85;5.72;;;;;;;5.91;67.46;102221.78;3541715;40;20061;-68
2024/01/29 00:41:09;;;;;;;8.32;5.78;;;;;;;5.83;67.94;102213.91;3540900;40;20219;-67
2024/01/29 00:43:34;;;;;;;7.93;5.18;;;;;;;5.86;68.14;102212.97;3535227;40;20153;-67
2024/01/29 00:46:00;;;;;;;7.78;5.38;;;;;;;5.88;68.40;102211.16;3537238;40;20069;-67
2024/01/29 00:48:26;;;;;;;9.38;5.30;;;;;;;5.89;67.93;102212.91;3543428;40;20053;-68
2024/01/29 00:50:52;;;;;;;7.43;5.38;;;;;;;5.82;68.18;102205.00;3541876;40;20063;-67
2024/01/29 00:53:18;;;;;;;7.82;5.30;;;;;;;5.74;68.30;102188.31;3541256;40;20156;-67
2024/01/29 00:55:45;;;;;;;7.30;5.20;;;;;;;5.91;67.88;102222.63;3540526;40;21016;-67
2024/01/29 00:58:12;;;;;;;6.70;5.40;;;;;;;5.91;68.03;102213.75;3543175;40;20057;-67
2024/01/29 01:00:38;;;;;;;7.97;5.45;;;;;;;5.89;68.11;102219.13;3541070;40;20058;-67
2024/01/29 01:03:05;;;;;;;9.90;5.45;;;;;;;5.66;68.54;102176.00;3541139;40;20395;-68
2024/01/29 01:05:32;;;;;;;8.88;5.78;;;;;;;5.91;68.24;102227.09;3541765;40;20049;-67
2024/01/29 01:07:58;;;;;;;7.25;5.35;;;;;;;5.81;68.50;102216.59;3540574;40;20058;-67
2024/01/29 01:10:24;;;;;;;7.80;5.80;;;;;;;5.70;68.30;102213.25;3543063;40;20382;-67
2024/01/29 01:12:50;;;;;;;8.95;5.38;;;;;;;5.80;68.37;102241.53;3540342;40;20052;-67
2024/01/29 01:15:16;;;;;;;9.10;5.55;;;;;;;5.78;68.80;102242.47;3541018;40;20050;-67
2024/01/29 01:17:41;;;;;;;11.52;5.25;;;;;;;5.64;68.71;102218.69;3540452;40;20072;-67
2024/01/29 01:20:08;;;;;;;8.90;5.65;;;;;;;5.73;69.17;102239.88;3540431;40;20066;-67
2024/01/29 01:22:34;;;;;;;7.28;5.28;;;;;;;5.67;69.48;102242.66;3543485;40;20057;-67
2024/01/29 01:24:59;;;;;;;8.30;5.75;;;;;;;5.61;69.09;102250.78;3544807;40;20058;-67
2024/01/29 01:27:25;;;;;;;6.50;5.22;;;;;;;5.14;69.78;102175.22;3544509;40;20117;-67
2024/01/29 01:29:51;;;;;;;8.48;5.72;;;;;;;5.52;70.15;102250.97;3536008;40;20410;-67
2024/01/29 01:32:16;;;;;;;9.18;5.60;;;;;;;5.48;70.63;102235.91;3542290;40;20062;-67
2024/01/29 01:34:42;;;;;;;10.15;5.97;;;;;;;5.48;70.33;102251.91;3544737;40;20298;-67
2024/01/29 01:37:08;;;;;;;8.18;5.72;;;;;;;5.40;70.93;102240.50;3542996;40;20511;-67
2024/01/29 01:39:34;;;;;;;8.05;6.00;;;;;;;5.42;70.53;102254.69;3541020;40;20481;-67
2024/01/29 01:41:59;;;;;;;10.05;5.88;;;;;;;5.33;70.92;102237.97;3540651;40;20050;-67
2024/01/29 01:44:25;;;;;;;7.95;5.40;;;;;;;5.37;71.16;102243.22;3545338;40;20076;-67
2024/01/29 01:46:51;;;;;;;8.52;5.80;;;;;;;5.34;70.42;102250.38;3542221;40;20070;-67
2024/01/29 01:49:18;;;;;;;7.80;5.70;;;;;;;5.30;70.52;102247.78;3543756;40;20085;-67
2024/01/29 01:51:48;;;;;;;10.10;6.10;;;;;;;5.12;71.06;102224.97;3544019;40;20053;-67
2024/01/29 01:54:16;;;;;;;8.05;5.25;;;;;;;5.18;71.87;102251.53;3543283;40;20057;-67
2024/01/29 01:56:43;;;;;;;8.60;5.72;;;;;;;5.16;72.43;102245.34;3540110;40;20054;-67
2024/01/29 01:59:11;;;;;;;8.75;5.68;;;;;;;5.06;72.69;102233.06;3541111;40;20292;-67
2024/01/29 02:01:38;;;;;;;9.13;5.35;;;;;;;4.99;71.91;102212.78;3534561;40;20049;-67
2024/01/29 02:04:05;;;;;;;9.52;5.72;;;;;;;5.04;72.10;102225.13;3540932;40;20064;-67
2024/01/29 02:06:31;;;;;;;7.82;5.30;;;;;;;5.15;72.58;102243.59;3543937;40;20398;-67
2024/01/29 02:08:56;;;;;;;7.95;5.80;;;;;;;5.18;72.66;102248.88;3545747;40;20063;-67
2024/01/29 02:11:23;;;;;;;8.85;5.53;;;;;;;5.16;72.42;102241.81;3545269;40;20319;-68
2024/01/29 02:13:49;;;;;;;8.07;5.40;;;;;;;5.13;72.73;102254.25;3541672;40;20280;-67
2024/01/29 02:16:15;;;;;;;5.95;5.13;;;;;;;4.94;72.74;102219.94;3546156;40;20053;-67
2024/01/29 02:18:41;;;;;;;10.00;6.07;;;;;;;5.07;72.62;102248.16;3545785;40;20058;-67
2024/01/29 02:21:07;;;;;;;10.40;5.35;;;;;;;5.02;73.39;102248.25;3544434;40;20058;-67
2024/01/29 02:23:32;;;;;;;5.63;5.03;;;;;;;5.03;73.89;102247.31;3542434;40;20550;-67
2024/01/29 02:25:58;;;;;;;7.75;5.60;;;;;;;5.03;73.86;102241.13;3543973;40;20056;-67
2024/01/29 02:28:25;;;;;;;8.68;5.88;;;;;;;4.79;73.62;102205.97;3541038;40;20049;-67
2024/01/29 02:30:51;;;;;;;9.75;5.22;;;;;;;5.02;73.41;102244.69;3541038;40;21008;-67
2024/01/29 02:33:17;;;;;;;9.65;5.75;;;;;;;4.92;73.93;102237.75;3542789;40;20062;-67
2024/01/29 02:35:45;;;;;;;7.50;5.47;;;;;;;4.93;73.77;102239.50;3541567;40;20066;-67
2024/01/29 02:38:11;;;;;;;9.32;5.55;;;;;;;4.88;73.94;102234.25;3541639;40;20431;-67
2024/01/29 02:40:37;;;;;;;7.53;5.47;;;;;;;4.84;74.19;102235.19;3541698;40;20053;-68
2024/01/29 02:43:03;;;;;;;8.73;5.47;;;;;;;4.82;74.44;102237.00;3542287;40;20061;-67
2024/01/29 02:45:29;;;;;;;10.68;5.80;;;;;;;4.75;75.21;102246.88;3541505;40;20061;-67
2024/01/29 02:47:54;;;;;;;9.35;5.25;;;;;;;4.70;74.54;102251.41;3541104;40;20051;-67
2024/01/29 02:50:22;;;;;;;8.57;5.80;;;;;;;4.67;74.59;102251.44;3545299;40;20050;-67
2024/01/29 02:52:48;;;;;;;7.18;5.60;;;;;;;4.65;75.38;102245.25;3542014;40;20058;-66
2024/01/29 02:55:14;;;;;;;11.13;6.00;;;;;;;4.64;76.04;102249.69;3541544;40;20060;-67
2024/01/29 02:57:40;;;;;;;7.55;5.35;;;;;;;4.63;75.17;102245.28;3541644;40;20081;-68
2024/01/29 03:00:06;;;;;;;8.95;5.90;;;;;;;4.61;75.13;102243.53;3542644;40;20058;-67
2024/01/29 03:02:32;;;;;;;8.32;5.80;;;;;;;4.61;75.06;102243.53;3541787;40;20503;-67
2024/01/29 03:04:57;;;;;;;8.77;5.72;;;;;;;4.55;74.79;102235.63;3542997;40;20058;-67
2024/01/29 03:07:23;;;;;;;10.77;6.20;;;;;;;4.56;75.92;102240.91;3542330;40;20065;-67
2024/01/29 03:09:48;;;;;;;9.55;5.72;;;;;;;4.53;75.16;102245.41;3539976;40;20456;-67
2024/01/29 03:12:14;;;;;;;11.73;6.82;;;;;;;4.48;75.95;102231.31;3543164;40;20058;-67
2024/01/29 03:14:41;;;;;;;12.35;6.25;;;;;;;4.45;76.01;102242.88;3540887;40;20050;-67
2024/01/29 03:17:07;;;;;;;10.82;6.38;;;;;;;4.42;76.29;102253.56;3542067;40;20091;-67
2024/01/29 03:19:33;;;;;;;12.45;6.72;;;;;;;4.36;75.90;102243.88;3539092;40;20058;-67
2024/01/29 03:21:59;;;;;;;9.07;6.18;;;;;;;4.22;76.25;102237.84;3542577;40;20391;-67
2024/01/29 03:24:24;;;;;;;8.98;5.90;;;;;;;4.07;77.18;102208.78;3542826;40;20065;-67
2024/01/29 03:26:50;;;;;;;10.07;6.15;;;;;;;4.25;77.44;102244.91;3539868;40;20291;-67
2024/01/29 03:29:16;;;;;;;9.57;6.20;;;;;;;4.30;78.22;102248.41;3541340;40;20055;-67
2024/01/29 03:31:41;;;;;;;10.13;6.03;;;;;;;4.36;78.32;102243.88;3541340;40;20064;-67
2024/01/29 03:34:07;;;;;;;11.23;6.28;;;;;;;4.04;78.46;102177.75;3543315;40;20054;-67
2024/01/29 03:36:32;;;;;;;10.30;5.93;;;;;;;4.47;79.11;102240.16;3540732;40;20061;-67
2024/01/29 03:38:58;;;;;;;8.13;5.20;;;;;;;4.55;78.36;102246.28;3541421;40;20276;-67
2024/01/29 03:41:23;;;;;;;7.80;4.97;;;;;;;4.58;77.85;102252.44;3542710;40;20054;-67
2024/01/29 03:43:49;;;;;;;9.15;5.70;;;;;;;4.61;77.00;102248.88;3542048;40;20066;-67
2024/01/29 03:46:15;;;;;;;9.77;5.75;;;;;;;4.59;76.49;102250.66;3542138;40;20057;-67
2024/01/29 03:48:41;;;;;;;10.70;5.80;;;;;;;4.52;76.47;102252.53;3541075;40;20054;-67
2024/01/29 03:51:06;;;;;;;9.43;5.70;;;;;;;4.51;76.57;102268.53;3543048;40;20063;-67
2024/01/29 03:53:32;;;;;;;7.50;5.68;;;;;;;4.43;76.68;102258.84;3541922;40;20061;-67
2024/01/29 03:55:57;;;;;;;7.82;5.40;;;;;;;4.40;76.96;102268.66;3541450;40;20069;-67
2024/01/29 03:58:23;;;;;;;8.75;5.07;;;;;;;4.34;76.59;102261.63;3541071;40;20099;-67
2024/01/29 04:00:49;;;;;;;7.20;5.75;;;;;;;4.31;76.79;102266.13;3541978;40;20062;-67
2024/01/29 04:03:14;;;;;;;6.97;5.60;;;;;;;4.29;77.12;102263.50;3542537;40;20069;-67
2024/01/29 04:05:40;;;;;;;10.75;5.80;;;;;;;4.25;77.08;102261.78;3542349;40;20457;-67
2024/01/29 04:08:06;;;;;;;8.73;5.78;;;;;;;4.26;78.37;102263.53;3542058;40;20088;-67
2024/01/29 04:10:32;;;;;;;7.18;5.03;;;;;;;4.21;78.43;102248.50;3542341;40;20054;-67
2024/01/29 04:12:57;;;;;;;8.23;5.15;;;;;;;4.29;78.46;102268.81;3543053;40;20370;-67
2024/01/29 04:15:23;;;;;;;7.53;5.55;;;;;;;4.30;78.40;102267.91;3542170;40;20068;-67
2024/01/29 04:17:48;;;;;;;7.85;5.40;;;;;;;4.32;78.43;102263.44;3542325;40;20054;-67
2024/01/29 04:20:14;;;;;;;8.48;5.60;;;;;;;4.26;78.14;102252.00;3542562;40;20058;-67
2024/01/29 04:22:40;;;;;;;6.63;4.97;;;;;;;4.24;77.89;102252.00;3541322;40;20060;-67
2024/01/29 04:25:06;;;;;;;7.35;5.15;;;;;;;4.30;77.84;102259.91;3542440;40;20055;-67
2024/01/29 04:27:33;;;;;;;7.68;5.10;;;;;;;4.15;78.17;102241.47;3542581;40;20363;-66
2024/01/29 04:29:59;;;;;;;7.32;5.47;;;;;;;4.26;77.90;102267.97;3538792;40;20121;-67
2024/01/29 04:32:25;;;;;;;5.43;4.82;;;;;;;4.21;78.08;102260.03;3541785;40;20120;-67
2024/01/29 04:34:51;;;;;;;8.38;5.43;;;;;;;4.17;78.14;102268.97;3540231;40;20415;-67
2024/01/29 04:37:16;;;;;;;8.38;5.68;;;;;;;4.18;78.86;102260.94;3543460;40;20060;-67
2024/01/29 04:39:42;;;;;;;7.25;5.43;;;;;;;3.85;78.96;102214.34;3544122;40;20070;-67
2024/01/29 04:42:07;;;;;;;9.80;6.53;;;;;;;4.21;79.47;102276.00;3541091;40;20062;-67
2024/01/29 04:44:33;;;;;;;10.30;6.20;;;;;;;4.23;79.92;102276.88;3543095;40;20621;-67
2024/01/29 04:46:59;;;;;;;10.75;5.78;;;;;;;4.24;79.43;102278.63;3542763;40;20057;-67
2024/01/29 04:49:25;;;;;;;10.27;5.90;;;;;;;4.26;79.63;102275.97;3542782;40;20058;-67
2024/01/29 04:51:51;;;;;;;10.95;5.47;;;;;;;4.26;79.18;102279.50;3542807;40;20096;-67
2024/01/29 04:54:17;;;;;;;8.38;5.30;;;;;;;4.26;79.25;102276.84;3536316;40;20057;-67
2024/01/29 04:56:42;;;;;;;6.80;5.38;;;;;;;4.24;78.93;102278.63;3543024;40;20064;-67
2024/01/29 04:59:08;;;;;;;7.70;4.95;;;;;;;4.19;78.94;102277.81;3542023;40;20059;-67
2024/01/29 05:01:34;;;;;;;8.35;5.30;;;;;;;4.16;78.66;102277.84;3543285;40;20382;-66
2024/01/29 05:03:59;;;;;;;6.93;5.47;;;;;;;4.04;79.18;102260.25;3543941;40;20058;-67
2024/01/29 05:06:25;;;;;;;8.55;5.82;;;;;;;4.05;79.33;102271.75;3543865;40;20082;-67
2024/01/29 05:08:51;;;;;;;8.52;4.93;;;;;;;4.03;79.11;102274.47;3544585;40;20059;-67
2024/01/29 05:11:16;;;;;;;7.28;5.22;;;;;;;4.00;79.88;102266.50;3540173;40;20060;-67
2024/01/29 05:13:43;;;;;;;8.63;5.07;;;;;;;3.99;79.88;102271.81;3543289;40;20323;-67
2024/01/29 05:16:13;;;;;;;7.88;5.28;;;;;;;3.98;80.05;102272.75;3544306;40;20082;-67
2024/01/29 05:18:38;;;;;;;8.98;5.47;;;;;;;3.98;80.11;102280.72;3542692;40;20089;-67
2024/01/29 05:21:06;;;;;;;37.45;23.75;;;;;;;3.97;80.59;102273.66;3542468;40;20066;-67
2024/01/29 05:23:31;;;;;;;9.05;7.03;;;;;;;3.95;80.10;102277.19;3543096;40;20281;-67
2024/01/29 05:25:57;;;;;;;15.38;10.60;;;;;;;3.96;80.25;102267.41;3535794;40;20299;-66
2024/01/29 05:28:22;;;;;;;11.95;8.00;;;;;;;4.00;81.31;102274.50;3542672;40;20056;-67
2024/01/29 05:30:52;;;;;;;10.00;7.03;;;;;;;3.81;81.77;102239.22;3541571;40;20424;-67
2024/01/29 05:33:17;;;;;;;11.45;6.03;;;;;;;4.05;81.82;102274.41;3541712;40;20058;-67
2024/01/29 05:35:43;;;;;;;8.73;5.80;;;;;;;4.10;82.07;102277.91;3543912;40;20272;-67
2024/01/29 05:38:09;;;;;;;7.70;5.85;;;;;;;4.10;81.07;102275.25;3543284;40;20066;-67
2024/01/29 05:40:34;;;;;;;6.72;4.90;;;;;;;4.12;81.00;102273.44;3542993;40;20319;-67
2024/01/29 05:43:00;;;;;;;8.82;5.50;;;;;;;4.11;81.14;102275.22;3545391;40;20054;-67
2024/01/29 05:45:26;;;;;;;8.65;5.05;;;;;;;4.14;80.96;102269.00;3543168;40;20046;-67
2024/01/29 05:47:51;;;;;;;8.07;5.70;;;;;;;3.98;81.80;102236.38;3542165;40;20046;-67
2024/01/29 05:50:17;;;;;;;7.88;5.65;;;;;;;4.25;82.39;102277.75;3541955;40;20141;-67
2024/01/29 05:52:43;;;;;;;9.65;5.18;;;;;;;4.31;82.48;102282.97;3540901;40;20058;-66
2024/01/29 05:55:09;;;;;;;6.47;4.95;;;;;;;4.36;83.18;102285.59;3542400;40;20331;-67
2024/01/29 05:57:35;;;;;;;6.78;5.20;;;;;;;4.39;82.79;102286.44;3543037;40;20269;-67
2024/01/29 06:00:03;;;;;;;11.65;5.45;;;;;;;4.21;83.15;102248.50;3542565;40;20145;-67
2024/01/29 06:02:28;;;;;;;9.07;5.60;;;;;;;4.47;82.78;102282.78;3543383;40;20058;-67
2024/01/29 06:04:54;;;;;;;7.18;5.20;;;;;;;4.53;82.22;102298.66;3542278;40;20088;-67
2024/01/29 06:07:19;;;;;;;7.68;5.40;;;;;;;4.53;81.48;102290.69;3542525;40;20053;-67
2024/01/29 06:09:45;;;;;;;7.63;5.30;;;;;;;4.56;81.67;102294.19;3542854;40;20065;-67
2024/01/29 06:12:10;;;;;;;8.00;5.60;;;;;;;4.58;81.78;102291.50;3544920;40;20054;-67
2024/01/29 06:14:36;;;;;;;10.75;5.43;;;;;;;4.58;82.22;102289.72;3542512;40;20062;-67
2024/01/29 06:17:02;;;;;;;6.63;4.57;;;;;;;4.54;82.40;102279.16;3542473;40;20061;-67
2024/01/29 06:19:29;;;;;;;9.45;5.18;;;;;;;4.70;82.34;102304.66;3540396;40;20070;-67
2024/01/29 06:21:54;;;;;;;7.10;4.97;;;;;;;4.72;81.89;102301.97;3544006;40;20065;-67
2024/01/29 06:24:20;;;;;;;6.80;4.75;;;;;;;4.73;81.91;102285.97;3544835;40;20053;-67
2024/01/29 06:26:45;;;;;;;8.57;5.57;;;;;;;4.76;81.71;102285.94;3544161;40;20062;-67
2024/01/29 06:29:11;;;;;;;8.15;5.20;;;;;;;4.80;81.87;102295.63;3544511;40;20065;-67
2024/01/29 06:31:40;;;;;;;7.07;4.57;;;;;;;4.83;81.06;102302.72;3545779;40;20073;-67
2024/01/29 06:34:06;;;;;;;6.70;4.82;;;;;;;4.80;80.19;102298.31;3544533;40;20114;-67
2024/01/29 06:36:32;;;;;;;6.97;4.88;;;;;;;4.75;80.08;102304.59;3544975;40;20133;-67
2024/01/29 06:39:00;;;;;;;7.88;5.38;;;;;;;4.71;80.19;102317.06;3544000;40;20050;-67
2024/01/29 06:41:27;;;;;;;19.42;13.32;;;;;;;4.57;79.63;102300.41;3545001;40;20105;-67
2024/01/29 06:43:54;;;;;;;9.18;7.03;;;;;;;4.42;79.96;102286.38;3542015;40;20048;-67
2024/01/29 06:46:21;;;;;;;6.70;5.93;;;;;;;4.51;80.62;102303.16;3542248;40;20061;-67
2024/01/29 06:48:47;;;;;;;10.55;6.65;;;;;;;4.46;80.80;102319.16;3543109;40;20169;-67
2024/01/29 06:51:15;;;;;;;8.32;6.07;;;;;;;4.48;81.98;102316.50;3544942;40;20049;-67
2024/01/29 06:53:41;;;;;;;9.05;5.80;;;;;;;4.50;81.91;102317.34;3545245;40;20307;-68
2024/01/29 06:56:07;;;;;;;7.75;5.68;;;;;;;4.50;81.86;102320.00;3542119;40;20062;-67
2024/01/29 06:58:36;;;;;;;8.23;5.65;;;;;;;4.50;81.99;102318.22;3544247;40;20128;-67
2024/01/29 07:01:03;;;;;;;7.65;5.15;;;;;;;4.53;81.64;102315.53;3544882;40;20054;-67
2024/01/29 07:03:28;;;;;;;10.50;5.15;;;;;;;4.58;82.63;102326.13;3542626;40;20383;-67
2024/01/29 07:05:56;;;;;;;8.70;5.60;;;;;;;4.62;82.04;102330.50;3542534;40;20069;-67
2024/01/29 07:08:22;;;;;;;7.22;5.25;;;;;;;4.61;81.18;102326.97;3545185;40;20382;-67
2024/01/29 07:10:48;;;;;;;6.55;4.90;;;;;;;4.61;81.40;102336.75;3541931;40;20054;-67
2024/01/29 07:13:13;;;;;;;8.70;5.00;;;;;;;4.60;81.03;102332.34;3542312;40;20061;-67
2024/01/29 07:15:42;;;;;;;10.07;5.32;;;;;;;4.57;81.90;102330.59;3542930;40;20054;-67
2024/01/29 07:18:08;;;;;;;7.90;5.35;;;;;;;4.58;81.37;102343.00;3543093;40;20056;-68
2024/01/29 07:20:43;;;;;;;7.55;5.03;;;;;;;4.57;80.94;102345.69;3540751;40;20057;-67
2024/01/29 07:23:09;;;;;;;6.93;5.10;;;;;;;4.55;81.78;102350.13;3544092;40;20656;-68
2024/01/29 07:25:35;;;;;;;7.55;5.78;;;;;;;4.54;82.00;102356.38;3544556;40;20058;-67
2024/01/29 07:28:04;;;;;;;9.95;5.70;;;;;;;4.54;81.63;102356.38;3540095;40;20050;-67
2024/01/29 07:30:31;;;;;;;11.43;7.35;;;;;;;4.52;81.71;102355.50;3544525;40;20046;-67
2024/01/29 07:32:58;;;;;;;25.77;17.00;;;;;;;4.53;82.05;102362.59;3544223;40;20042;-67
2024/01/29 07:35:25;;;;;;;17.48;11.52;;;;;;;4.54;82.82;102359.91;3542585;40;20058;-67
2024/01/29 07:37:52;;;;;;;15.57;10.18;;;;;;;4.40;81.78;102336.09;3544431;40;20107;-67
2024/01/29 07:40:19;;;;;;;19.40;13.80;;;;;;;4.55;81.99;102360.78;3541989;40;20049;-67
2024/01/29 07:42:46;;;;;;;18.52;11.15;;;;;;;4.48;82.39;102349.34;3546565;40;20477;-67
2024/01/29 07:45:12;;;;;;;15.55;10.82;;;;;;;4.56;82.60;102367.88;3542378;40;20070;-67
2024/01/29 07:47:38;;;;;;;17.92;11.90;;;;;;;4.46;82.45;102345.78;3542857;40;20061;-67
2024/01/29 07:50:04;;;;;;;19.95;12.10;;;;;;;4.61;82.21;102360.72;3538559;40;20058;-67
2024/01/29 07:52:30;;;;;;;20.05;11.85;;;;;;;4.66;82.67;102369.50;3541878;40;20166;-68
2024/01/29 07:54:55;;;;;;;17.33;11.23;;;;;;;4.70;82.87;102362.41;3537628;40;20066;-68
2024/01/29 07:57:21;;;;;;;15.57;10.10;;;;;;;4.73;83.61;102371.22;3543789;40;20331;-67
2024/01/29 07:59:46;;;;;;;18.67;11.15;;;;;;;4.84;83.60;102373.72;3540815;40;20073;-68
2024/01/29 08:02:12;;;;;;;18.50;11.77;;;;;;;4.65;83.34;102325.16;3544075;40;20066;-67
2024/01/29 08:04:38;;;;;;;22.83;12.93;;;;;;;5.04;83.05;102370.78;3539944;40;20067;-67
2024/01/29 08:07:04;;;;;;;19.15;11.93;;;;;;;5.13;83.14;102376.88;3538369;40;20057;-67
2024/01/29 08:09:30;;;;;;;17.52;10.98;;;;;;;5.07;82.77;102344.09;3539914;40;20307;-67
2024/01/29 08:11:56;;;;;;;13.48;9.18;;;;;;;5.29;82.72;102366.88;3536559;40;20056;-67
2024/01/29 08:14:22;;;;;;;14.32;8.80;;;;;;;5.48;81.96;102377.25;3538469;40;20062;-67
2024/01/29 08:16:48;;;;;;;10.23;7.32;;;;;;;5.62;81.43;102377.06;3540508;40;20359;-67
2024/01/29 08:19:13;;;;;;;13.55;8.18;;;;;;;5.76;81.29;102369.69;3537073;40;20346;-67
2024/01/29 08:21:39;;;;;;;10.88;7.65;;;;;;;5.89;80.92;102376.56;3538320;40;20050;-67
2024/01/29 08:24:05;;;;;;;15.18;9.95;;;;;;;5.96;80.14;102370.28;3538391;40;20066;-67
2024/01/29 08:26:31;;;;;;;12.45;8.88;;;;;;;6.17;79.93;102381.44;3539861;40;20068;-67
2024/01/29 08:28:58;;;;;;;15.00;10.43;;;;;;;6.25;78.95;102374.19;3542843;40;20081;-67
2024/01/29 08:31:24;;;;;;;11.00;8.13;;;;;;;6.30;78.96;102363.41;3527961;40;20042;-67
2024/01/29 08:33:51;;;;;;;10.57;8.43;;;;;;;6.50;77.83;102375.47;3537124;40;20081;-67
2024/01/29 08:36:20;;;;;;;12.35;8.85;;;;;;;6.64;77.41;102385.88;3536489;40;20384;-67
2024/01/29 08:38:47;;;;;;;12.30;7.78;;;;;;;6.75;76.46;102388.31;3537413;40;20125;-68
2024/01/29 08:41:13;;;;;;;9.00;6.20;;;;;;;6.61;76.64;102348.53;3536208;40;20132;-67
2024/01/29 08:43:39;;;;;;;7.90;5.25;;;;;;;6.89;75.85;102390.72;3544026;40;20316;-67
2024/01/29 08:46:06;;;;;;;8.88;5.78;;;;;;;6.96;75.44;102387.00;3537013;40;20060;-67
2024/01/29 08:48:32;;;;;;;7.25;5.10;;;;;;;7.05;74.92;102380.56;3537533;40;20098;-67
2024/01/29 08:50:58;;;;;;;6.95;5.57;;;;;;;7.09;74.76;102383.13;3537443;40;20330;-67
2024/01/29 08:53:25;;;;;;;6.68;5.53;;;;;;;7.17;74.57;102380.28;3538826;40;20058;-67
2024/01/29 08:55:51;;;;;;;9.25;6.95;;;;;;;7.17;74.63;102381.16;3531174;40;20054;-67
2024/01/29 08:58:16;;;;;;;7.63;5.43;;;;;;;7.16;74.21;102368.69;3539076;40;20140;-67
2024/01/29 09:00:42;;;;;;;6.70;5.45;;;;;;;7.29;73.48;102379.97;3537926;40;20094;-67
2024/01/29 09:03:09;;;;;;;7.93;5.90;;;;;;;7.33;73.77;102380.81;3535775;40;20053;-67
2024/01/29 09:05:36;;;;;;;6.80;5.70;;;;;;;7.37;73.55;102377.16;3534947;40;20061;-67
2024/01/29 09:08:02;;;;;;;10.77;6.68;;;;;;;7.39;74.09;102375.31;3534961;40;20085;-67
2024/01/29 09:10:28;;;;;;;9.48;6.15;;;;;;;7.46;73.59;102381.41;3535921;40;20062;-67
2024/01/29 09:12:53;;;;;;;8.60;6.07;;;;;;;7.53;74.20;102373.19;3535596;40;20391;-68
2024/01/29 09:15:19;;;;;;;11.32;6.20;;;;;;;7.57;73.81;102380.22;3536068;40;20060;-67
2024/01/29 09:17:44;;;;;;;8.90;6.55;;;;;;;7.60;73.37;102374.78;3537888;40;20575;-67
2024/01/29 09:20:12;;;;;;;8.25;6.25;;;;;;;7.63;73.51;102379.19;3536827;40;20077;-67
2024/01/29 09:22:38;;;;;;;9.43;6.10;;;;;;;7.64;73.17;102368.47;3537729;40;20117;-67
2024/01/29 09:25:06;;;;;;;9.68;6.22;;;;;;;7.67;73.43;102376.41;3542638;40;20068;-67
2024/01/29 09:27:32;;;;;;;7.90;6.25;;;;;;;7.69;73.35;102381.72;3538379;40;20057;-67
2024/01/29 09:29:58;;;;;;;8.13;6.28;;;;;;;7.74;73.52;102376.22;3535429;40;20058;-67
2024/01/29 09:32:23;;;;;;;8.00;6.03;;;;;;;7.76;73.06;102375.28;3535607;40;20418;-67
2024/01/29 09:34:49;;;;;;;8.65;5.40;;;;;;;7.83;72.96;102376.00;3535649;40;20066;-67
2024/01/29 09:37:18;;;;;;;8.50;6.03;;;;;;;7.63;73.02;102331.91;3535561;40;20611;-67
2024/01/29 09:39:44;;;;;;;7.47;5.53;;;;;;;7.97;73.19;102379.22;3535236;40;20405;-68
2024/01/29 09:42:18;;;;;;;6.70;5.32;;;;;;;8.12;72.56;102389.53;3539221;40;20054;-67
2024/01/29 09:44:49;;;;;;;6.45;5.00;;;;;;;8.30;72.73;102396.19;3537200;40;20058;-68
2024/01/29 09:47:19;;;;;;;8.27;5.03;;;;;;;8.50;71.08;102397.47;3536731;40;20136;-65
2024/01/29 09:49:47;;;;;;;9.00;5.70;;;;;;;8.71;70.17;102398.66;3539933;40;20066;-65
2024/01/29 09:52:13;;;;;;;7.40;5.45;;;;;;;8.70;70.01;102360.25;3537907;40;20050;-65
2024/01/29 09:54:40;;;;;;;7.45;5.20;;;;;;;9.22;69.84;102400.72;3535696;40;20125;-65
2024/01/29 09:57:11;;;;;;;8.75;5.22;;;;;;;9.37;67.59;102400.25;3539673;40;20093;-67
2024/01/29 09:59:38;;;;;;;8.38;5.10;;;;;;;9.59;67.23;102407.63;3537211;40;20052;-65
2024/01/29 10:02:04;;;;;;;6.00;4.80;;;;;;;9.77;66.32;102415.09;3537733;40;20055;-65
2024/01/29 10:04:30;;;;;;;6.55;4.93;;;;;;;9.93;66.25;102410.94;3538857;40;20056;-65
2024/01/29 10:06:55;;;;;;;6.82;5.32;;;;;;;10.04;65.19;102407.88;3540841;40;20422;-64
2024/01/29 10:09:21;;;;;;;7.55;5.32;;;;;;;10.20;64.69;102408.22;3536924;40;20058;-65
2024/01/29 10:11:49;;;;;;;8.25;5.60;;;;;;;10.40;64.03;102418.31;3540486;40;20317;-65
2024/01/29 10:14:16;;;;;;;6.70;5.13;;;;;;;10.57;63.93;102423.09;3537001;40;20085;-65
2024/01/29 10:16:42;;;;;;;6.72;5.43;;;;;;;10.64;63.17;102408.50;3538819;40;20050;-66
2024/01/29 10:19:09;;;;;;;6.65;5.65;;;;;;;10.84;62.36;102427.44;3543035;40;20051;-66
2024/01/29 10:21:39;;;;;;;7.60;5.63;;;;;;;11.02;62.36;102431.25;3544586;40;20422;-65
2024/01/29 10:24:13;;;;;;;7.65;5.50;;;;;;;11.19;62.67;102427.03;3536371;40;20058;-65
2024/01/29 10:26:40;;;;;;;9.05;5.57;;;;;;;11.36;62.27;102429.97;3544116;40;20102;-67
2024/01/29 10:29:09;;;;;;;6.78;5.45;;;;;;;11.53;60.77;102426.59;3539990;40;20070;-66
2024/01/29 10:31:35;;;;;;;6.60;5.35;;;;;;;11.75;60.60;102432.00;3544276;40;20046;-66
2024/01/29 10:34:03;;;;;;;7.15;5.40;;;;;;;11.87;59.51;102419.88;3543497;40;20049;-66
2024/01/29 10:36:29;;;;;;;6.45;5.45;;;;;;;12.08;59.52;102421.63;3543467;40;20387;-66
2024/01/29 10:39:03;;;;;;;6.78;5.28;;;;;;;12.23;59.16;102426.38;3543332;40;20068;-67
2024/01/29 10:41:32;;;;;;;8.80;5.53;;;;;;;12.36;58.76;102429.41;3544123;40;20050;-66
2024/01/29 10:44:04;;;;;;;8.02;5.18;;;;;;;12.45;57.97;102428.16;3544277;40;20069;-66
2024/01/29 10:46:38;;;;;;;9.80;5.82;;;;;;;12.55;57.54;102429.50;3540737;40;20065;-67
2024/01/29 10:49:05;;;;;;;7.28;5.60;;;;;;;12.60;57.15;102429.31;3539600;40;20057;-66
2024/01/29 10:51:34;;;;;;;10.80;6.07;;;;;;;12.70;56.89;102428.81;3541831;40;20096;-66
2024/01/29 10:54:01;;;;;;;8.70;5.25;;;;;;;12.87;57.20;102421.75;3541344;40;20116;-66
2024/01/29 10:56:28;;;;;;;7.85;5.65;;;;;;;12.94;56.90;102423.22;3541645;40;20041;-66
2024/01/29 10:58:58;;;;;;;6.60;5.25;;;;;;;12.98;56.64;102424.84;3540384;40;20050;-66
2024/01/29 11:01:24;;;;;;;8.40;5.82;;;;;;;13.07;56.39;102432.53;3541037;40;20058;-66
2024/01/29 11:03:52;;;;;;;6.57;5.50;;;;;;;13.30;56.42;102426.06;3538568;40;20053;-66
2024/01/29 11:06:23;;;;;;;8.00;5.50;;;;;;;13.55;55.95;102428.47;3540142;40;20070;-66
2024/01/29 11:08:58;;;;;;;7.55;5.45;;;;;;;13.69;55.40;102420.53;3541909;40;20046;-67
2024/01/29 11:11:30;;;;;;;7.60;5.60;;;;;;;13.82;55.11;102423.50;3543421;40;20057;-66
2024/01/29 11:13:56;;;;;;;6.88;5.80;;;;;;;13.80;54.80;102419.16;3542937;40;20112;-66
2024/01/29 11:16:23;;;;;;;8.65;6.00;;;;;;;13.90;54.91;102409.63;3539666;40;20066;-66
2024/01/29 11:18:49;;;;;;;7.38;6.03;;;;;;;14.04;54.27;102425.13;3543537;40;20307;-66
2024/01/29 11:21:15;;;;;;;6.47;5.30;;;;;;;14.21;54.77;102426.97;3539443;40;20196;-66
2024/01/29 11:23:47;;;;;;;8.20;5.85;;;;;;;14.36;54.36;102428.88;3543567;40;20062;-66
2024/01/29 11:26:17;;;;;;;8.38;5.72;;;;;;;14.49;53.51;102416.47;3542991;40;20050;-66